createdAt,value
2023-04-04T00:00:13.259Z,-0.28
2023-04-04T00:05:15.449Z,-0.27
2023-04-04T00:10:17.169Z,-0.13
2023-04-04T00:15:18.844Z,-0.28
2023-04-04T00:20:20.496Z,-0.47
2023-04-04T00:25:22.113Z,-0.60
2023-04-04T00:30:23.689Z,-0.59
2023-04-04T00:35:25.496Z,-0.66
2023-04-04T00:40:27.110Z,-0.76
2023-04-04T00:45:28.819Z,-0.85
2023-04-04T00:50:32.233Z,-0.78
2023-04-04T00:55:38.738Z,-0.78
2023-04-04T01:00:42.227Z,-0.92
2023-04-04T01:05:43.932Z,-1.00
2023-04-04T01:10:46.472Z,-1.09
2023-04-04T01:15:48.840Z,-1.17
2023-04-04T01:20:59.481Z,-1.25
2023-04-04T01:26:03.027Z,-1.27
2023-04-04T01:31:09.748Z,-1.29
2023-04-04T01:36:19.457Z,-1.41
2023-04-04T01:41:22.518Z,-1.48
2023-04-04T01:46:31.495Z,-1.55
2023-04-04T01:51:34.364Z,-1.74
2023-04-04T01:56:36.099Z,-1.61
2023-04-04T02:01:40.227Z,-1.59
2023-04-04T02:06:42.199Z,-1.68
2023-04-04T02:11:44.010Z,-1.71
2023-04-04T02:16:46.010Z,-1.72
2023-04-04T02:21:47.730Z,-1.73
2023-04-04T02:26:49.369Z,-1.82
2023-04-04T02:31:50.877Z,-1.88
2023-04-04T02:36:52.357Z,-1.96
2023-04-04T02:41:56.056Z,-2.10
2023-04-04T02:46:57.708Z,-2.16
2023-04-04T02:52:04.228Z,-2.19
2023-04-04T02:57:11.287Z,-2.16
2023-04-04T03:02:13.213Z,-2.16
2023-04-04T03:07:15.038Z,-2.20
2023-04-04T03:12:20.683Z,-2.12
2023-04-04T03:17:23.132Z,-2.05
2023-04-04T03:22:24.913Z,-2.10
2023-04-04T03:27:26.580Z,-2.32
2023-04-04T03:32:28.307Z,-2.32
2023-04-04T03:37:30.491Z,-2.31
2023-04-04T03:42:35.167Z,-2.43
2023-04-04T03:47:44.035Z,-2.48
2023-04-04T03:52:45.677Z,-2.53
2023-04-04T03:57:47.750Z,-2.58
2023-04-04T04:02:50.434Z,-2.69
2023-04-04T04:07:53.658Z,-2.71
2023-04-04T04:12:55.158Z,-2.70
2023-04-04T04:17:57.193Z,-2.70
2023-04-04T04:23:01.556Z,-2.84
2023-04-04T04:28:04.995Z,-3.00
2023-04-04T04:33:06.802Z,-3.15
2023-04-04T04:38:15.946Z,-3.10
2023-04-04T04:43:17.842Z,-3.02
2023-04-04T04:48:20.276Z,-2.91
2023-04-04T04:53:26.638Z,-2.74
2023-04-04T04:58:28.810Z,-2.70
2023-04-04T05:03:33.304Z,-2.76
2023-04-04T05:08:36.547Z,-2.84
2023-04-04T05:13:46.261Z,-2.81
2023-04-04T05:18:47.919Z,-2.74
2023-04-04T05:23:49.541Z,-2.70
2023-04-04T05:28:52.503Z,-2.64
2023-04-04T05:33:56.350Z,-2.47
2023-04-04T05:39:04.976Z,-2.29
2023-04-04T05:44:08.954Z,-2.09
2023-04-04T05:49:10.485Z,-1.95
2023-04-04T05:54:16.275Z,-1.75
2023-04-04T05:59:19.008Z,-1.58
2023-04-04T06:04:29.495Z,-1.32
2023-04-04T06:09:33.561Z,-1.10
2023-04-04T06:14:36.272Z,-0.93
2023-04-04T06:19:39.998Z,-0.69
2023-04-04T06:24:41.525Z,-0.60
2023-04-04T06:29:43.878Z,-0.38
2023-04-04T06:34:46.668Z,-0.35
2023-04-04T06:39:49.678Z,-0.16
2023-04-04T06:44:58.586Z,-0.03
2023-04-04T06:50:00.166Z,0.23
2023-04-04T06:55:04.503Z,0.37
2023-04-04T07:00:06.796Z,0.59
2023-04-04T07:05:08.902Z,0.72
2023-04-04T07:10:10.982Z,0.90
2023-04-04T07:15:12.969Z,1.12
2023-04-04T07:20:14.523Z,1.35
2023-04-04T07:25:16.049Z,1.43
2023-04-04T07:30:17.547Z,1.51
2023-04-04T07:35:19.176Z,1.69
2023-04-04T07:40:21.537Z,1.89
2023-04-04T07:45:23.367Z,2.10
2023-04-04T07:50:24.872Z,2.17
2023-04-04T07:55:26.950Z,2.16
2023-04-04T08:00:28.557Z,2.23
2023-04-04T08:05:30.371Z,2.22
2023-04-04T08:10:31.963Z,2.40
2023-04-04T08:15:33.473Z,2.52
2023-04-04T08:20:35.602Z,2.65
2023-04-04T08:25:37.133Z,2.52
2023-04-04T08:30:38.840Z,2.64
2023-04-04T08:35:40.717Z,2.77
2023-04-04T08:46:06.010Z,2.98
2023-04-04T08:51:10.568Z,2.95
2023-04-04T08:56:12.388Z,3.04
2023-04-04T09:01:14.025Z,3.09
2023-04-04T09:06:19.298Z,3.11
2023-04-04T09:11:23.394Z,3.38
2023-04-04T09:16:27.299Z,3.43
2023-04-04T09:21:33.450Z,3.50
2023-04-04T09:26:57.145Z,3.74
2023-04-04T09:31:58.973Z,3.91
2023-04-04T09:37:00.622Z,3.87
2023-04-04T09:42:02.343Z,3.97
2023-04-04T09:47:30.463Z,4.00
2023-04-04T09:52:33.897Z,4.16
2023-04-04T09:57:37.827Z,4.09
2023-04-04T10:02:46.900Z,4.15
2023-04-04T10:07:48.513Z,4.32
2023-04-04T10:12:52.604Z,4.47
2023-04-04T10:17:55.569Z,4.51
2023-04-04T10:22:57.438Z,4.62
2023-04-04T10:27:58.941Z,4.62
2023-04-04T10:33:07.480Z,4.84
2023-04-04T10:38:09.684Z,4.87
2023-04-04T10:43:20.689Z,4.94
2023-04-04T10:48:23.446Z,4.89
2023-04-04T10:53:25.090Z,5.08
2023-04-04T10:58:27.905Z,5.20
2023-04-04T11:03:33.987Z,5.30
2023-04-04T11:08:39.788Z,5.45
2023-04-04T11:14:00.119Z,5.54
2023-04-04T11:19:01.975Z,5.50
2023-04-04T11:24:06.566Z,5.48
2023-04-04T11:29:08.553Z,5.60
2023-04-04T11:34:14.364Z,5.68
2023-04-04T11:39:25.311Z,5.66
2023-04-04T11:44:30.776Z,5.78
2023-04-04T11:49:38.200Z,5.77
2023-04-04T11:54:41.922Z,5.84
2023-04-04T11:59:48.021Z,5.92
2023-04-04T12:04:51.895Z,5.99
2023-04-04T12:09:54.583Z,5.99
2023-04-04T12:15:10.288Z,6.19
2023-04-04T12:20:22.785Z,6.04
2023-04-04T12:25:25.842Z,6.12
2023-04-04T12:30:27.566Z,6.08
2023-04-04T12:35:30.287Z,6.05
2023-04-04T12:40:37.766Z,5.88
2023-04-04T12:45:40.787Z,5.98
2023-04-04T12:50:52.011Z,6.14
2023-04-04T12:55:54.967Z,6.16
2023-04-04T13:01:00.536Z,6.23
2023-04-04T13:06:02.548Z,6.19
2023-04-04T13:11:06.871Z,6.24
2023-04-04T13:16:09.191Z,6.18
2023-04-04T13:21:12.161Z,6.25
2023-04-04T13:26:13.858Z,6.38
2023-04-04T13:31:16.120Z,6.35
2023-04-04T13:36:17.916Z,6.46
2023-04-04T13:41:22.756Z,6.47
2023-04-04T13:46:24.445Z,6.51
2023-04-04T13:51:26.704Z,6.69
2023-04-04T13:56:28.571Z,6.62
2023-04-04T14:01:31.175Z,6.66
2023-04-04T14:06:32.968Z,6.54
2023-04-04T14:11:34.684Z,6.53
2023-04-04T14:16:36.436Z,6.60
2023-04-04T14:21:38.088Z,6.57
2023-04-04T14:26:39.701Z,6.63
2023-04-04T14:31:41.354Z,6.66
2023-04-04T14:36:43.088Z,6.63
2023-04-04T14:41:44.620Z,6.63
2023-04-04T14:46:46.542Z,6.68
2023-04-04T14:51:48.175Z,6.70
2023-04-04T14:56:49.733Z,6.67
2023-04-04T15:01:51.525Z,6.67
2023-04-04T15:06:53.501Z,6.77
2023-04-04T15:11:56.237Z,6.73
2023-04-04T15:16:57.758Z,6.62
2023-04-04T15:21:59.326Z,6.62
2023-04-04T15:27:01.525Z,6.56
2023-04-04T15:32:03.158Z,6.65
2023-04-04T15:37:04.806Z,6.67
2023-04-04T15:42:06.434Z,6.67
2023-04-04T15:47:08.407Z,6.65
2023-04-04T15:52:09.953Z,6.57
2023-04-04T15:57:11.528Z,6.61
2023-04-04T16:02:13.074Z,6.57
2023-04-04T16:07:14.572Z,6.51
2023-04-04T16:12:16.353Z,6.52
2023-04-04T16:17:17.866Z,6.46
2023-04-04T16:22:19.380Z,6.45
2023-04-04T16:27:20.966Z,6.45
2023-04-04T16:32:22.620Z,6.47
2023-04-04T16:37:24.211Z,6.43
2023-04-04T16:42:25.824Z,6.43
2023-04-04T16:47:28.247Z,6.41
2023-04-04T16:52:30.720Z,6.44
2023-04-04T16:57:32.219Z,6.43
2023-04-04T17:02:33.762Z,6.33
2023-04-04T17:07:35.280Z,6.28
2023-04-04T17:12:37.441Z,6.29
2023-04-04T17:17:39.080Z,6.25
2023-04-04T17:22:40.710Z,6.12
2023-04-04T17:27:42.357Z,6.06
2023-04-04T17:32:43.971Z,5.95
2023-04-04T17:37:45.529Z,5.81
2023-04-04T17:42:47.096Z,5.62
2023-04-04T17:47:48.768Z,5.49
2023-04-04T17:52:50.426Z,5.36
2023-04-04T17:57:51.950Z,5.24
2023-04-04T18:02:53.627Z,5.13
2023-04-04T18:07:55.993Z,5.02
2023-04-04T18:12:57.882Z,4.91
2023-04-04T18:17:59.660Z,4.73
2023-04-04T18:23:01.412Z,4.68
2023-04-04T18:28:03.146Z,4.57
2023-04-04T18:33:05.117Z,4.39
2023-04-04T18:38:07.141Z,4.29
2023-04-04T18:43:08.711Z,4.09
2023-04-04T18:48:12.475Z,4.08
2023-04-04T18:53:14.042Z,4.11
2023-04-04T18:58:16.024Z,4.04
2023-04-04T19:03:17.579Z,3.98
2023-04-04T19:08:19.615Z,3.96
2023-04-04T19:13:21.219Z,3.98
2023-04-04T19:18:23.590Z,3.96
2023-04-04T19:23:25.502Z,3.89
2023-04-04T19:28:26.999Z,3.90
2023-04-04T19:33:28.569Z,3.81
2023-04-04T19:38:33.260Z,3.77
2023-04-04T19:43:34.856Z,3.76
2023-04-04T19:48:50.803Z,3.74
2023-04-04T19:53:55.560Z,3.69
2023-04-04T19:59:00.877Z,3.60
2023-04-04T20:04:10.095Z,3.49
2023-04-04T20:09:25.808Z,3.27
2023-04-04T20:14:27.320Z,3.08
2023-04-04T20:19:29.182Z,2.98
2023-04-04T20:24:30.928Z,2.93
2023-04-04T20:29:34.753Z,2.86
2023-04-04T20:34:46.364Z,2.75
2023-04-04T20:39:54.682Z,2.65
2023-04-04T20:44:59.302Z,2.49
2023-04-04T20:50:01.027Z,2.34
2023-04-04T20:55:02.853Z,2.24
2023-04-04T21:00:29.737Z,2.14
2023-04-04T21:05:33.497Z,2.10
2023-04-04T21:10:37.981Z,2.08
2023-04-04T21:15:39.579Z,2.04
2023-04-04T21:20:46.852Z,1.98
2023-04-04T21:25:48.352Z,1.89
2023-04-04T21:30:50.007Z,1.78
2023-04-04T21:35:52.999Z,1.78
2023-04-04T21:40:54.596Z,1.72
2023-04-04T21:45:56.458Z,1.67
2023-04-04T21:50:58.174Z,1.67
2023-04-04T21:55:59.821Z,1.62
2023-04-04T22:01:01.533Z,1.46
2023-04-04T22:06:03.189Z,1.17
2023-04-04T22:11:05.938Z,0.87
2023-04-04T22:16:07.530Z,0.67
2023-04-04T22:21:09.065Z,0.58
2023-04-04T22:26:17.344Z,0.48
2023-04-04T22:31:18.895Z,0.43
2023-04-04T22:36:21.925Z,0.31
2023-04-04T22:41:28.473Z,0.37
2023-04-04T22:46:32.147Z,0.29
2023-04-04T22:51:43.339Z,0.36
2023-04-04T22:56:45.748Z,0.33
2023-04-04T23:01:49.400Z,0.42
2023-04-04T23:06:51.041Z,0.45
2023-04-04T23:11:52.590Z,0.49
2023-04-04T23:16:56.770Z,0.42
2023-04-04T23:21:59.504Z,0.27
2023-04-04T23:27:01.242Z,0.11
2023-04-04T23:32:02.820Z,0.16
2023-04-04T23:37:05.457Z,0.69
2023-04-04T23:42:07.166Z,1.04
2023-04-04T23:47:08.704Z,1.19
2023-04-04T23:52:10.235Z,1.21
2023-04-04T23:57:11.755Z,1.13
